createdAt,value
2023-03-14T00:01:49.702Z,0.55
2023-03-14T00:04:56.172Z,0.67
2023-03-14T00:07:58.747Z,0.30
2023-03-14T00:11:06.426Z,0.50
2023-03-14T00:14:09.035Z,0.40
2023-03-14T00:17:14.661Z,0.50
2023-03-14T00:20:17.234Z,0.80
2023-03-14T00:23:19.764Z,0.60
2023-03-14T00:26:23.223Z,0.40
2023-03-14T00:29:25.948Z,0.32
2023-03-14T00:32:29.868Z,0.37
2023-03-14T00:35:32.545Z,0.50
2023-03-14T00:38:35.441Z,0.40
2023-03-14T00:41:37.934Z,0.50
2023-03-14T00:44:40.593Z,0.80
2023-03-14T00:47:46.453Z,0.53
2023-03-14T00:50:49.268Z,0.47
2023-03-14T00:53:51.977Z,0.35
2023-03-14T00:56:54.526Z,0.43
2023-03-14T00:59:57.648Z,0.50
2023-03-14T01:03:01.694Z,0.25
2023-03-14T01:06:12.176Z,0.50
2023-03-14T01:09:14.682Z,0.40
2023-03-14T01:12:17.332Z,0.30
2023-03-14T01:15:20.216Z,0.37
2023-03-14T01:18:24.183Z,0.40
2023-03-14T01:21:28.930Z,0.50
2023-03-14T01:24:31.487Z,0.40
2023-03-14T01:27:34.505Z,0.30
2023-03-14T01:30:37.093Z,0.22
2023-03-14T01:33:41.489Z,0.43
2023-03-14T01:36:44.042Z,0.30
2023-03-14T01:39:48.538Z,0.47
2023-03-14T01:42:56.497Z,0.60
2023-03-14T01:46:16.850Z,0.30
2023-03-14T01:49:24.802Z,0.27
2023-03-14T01:52:29.685Z,0.30
2023-03-14T01:55:32.226Z,0.60
2023-03-14T01:58:35.771Z,0.33
2023-03-14T02:01:38.948Z,0.30
2023-03-14T02:04:43.268Z,0.30
2023-03-14T02:07:49.343Z,0.40
2023-03-14T02:10:53.482Z,0.63
2023-03-14T02:13:56.688Z,0.30
2023-03-14T02:16:59.385Z,0.40
2023-03-14T02:20:16.228Z,0.40
2023-03-14T02:23:22.682Z,0.20
2023-03-14T02:26:29.021Z,0.30
2023-03-14T02:29:34.063Z,0.30
2023-03-14T02:32:38.327Z,0.23
2023-03-14T02:35:44.444Z,0.30
2023-03-14T02:38:49.839Z,0.30
2023-03-14T02:41:52.416Z,0.30
2023-03-14T02:45:03.324Z,0.20
2023-03-14T02:48:08.910Z,0.40
2023-03-14T02:51:12.130Z,0.40
2023-03-14T02:54:15.021Z,0.30
2023-03-14T02:57:17.560Z,0.20
2023-03-14T03:00:22.530Z,0.30
2023-03-14T03:03:25.185Z,0.37
2023-03-14T03:06:27.741Z,0.20
2023-03-14T03:09:30.536Z,0.30
2023-03-14T03:12:33.038Z,0.50
2023-03-14T03:15:37.090Z,0.30
2023-03-14T03:18:39.722Z,0.33
2023-03-14T03:21:42.379Z,0.40
2023-03-14T03:24:45.449Z,0.40
2023-03-14T03:27:48.179Z,0.22
2023-03-14T03:30:52.510Z,0.30
2023-03-14T03:33:55.200Z,0.23
2023-03-14T03:36:58.528Z,0.40
2023-03-14T03:40:01.657Z,0.30
2023-03-14T03:43:04.828Z,0.40
2023-03-14T03:46:09.209Z,0.30
2023-03-14T03:49:11.916Z,0.60
2023-03-14T03:52:14.547Z,0.50
2023-03-14T03:55:17.393Z,0.50
2023-03-14T03:58:20.098Z,0.60
2023-03-14T04:01:24.018Z,0.50
2023-03-14T04:04:26.849Z,0.50
2023-03-14T04:07:29.560Z,0.57
2023-03-14T04:10:32.344Z,0.80
2023-03-14T04:13:34.886Z,0.70
2023-03-14T04:16:38.714Z,0.70
2023-03-14T04:19:41.648Z,1.13
2023-03-14T04:22:44.733Z,0.43
2023-03-14T04:25:47.392Z,0.50
2023-03-14T04:28:49.841Z,0.60
2023-03-14T04:31:53.891Z,0.60
2023-03-14T04:34:56.393Z,0.60
2023-03-14T04:37:58.985Z,0.70
2023-03-14T04:41:02.239Z,0.47
2023-03-14T04:44:04.833Z,0.50
2023-03-14T04:47:08.668Z,0.80
2023-03-14T04:50:12.491Z,0.50
2023-03-14T04:53:15.033Z,0.50
2023-03-14T04:56:17.522Z,0.53
2023-03-14T04:59:20.084Z,0.70
2023-03-14T05:02:23.984Z,0.87
2023-03-14T05:05:26.593Z,0.80
2023-03-14T05:08:29.077Z,0.60
2023-03-14T05:11:31.570Z,0.70
2023-03-14T05:14:34.233Z,0.67
2023-03-14T05:17:38.195Z,1.00
2023-03-14T05:20:40.708Z,0.60
2023-03-14T05:23:43.426Z,0.73
2023-03-14T05:26:46.007Z,0.60
2023-03-14T05:29:49.168Z,0.63
2023-03-14T05:32:53.028Z,1.38
2023-03-14T05:35:55.572Z,0.80
2023-03-14T05:38:58.127Z,0.57
2023-03-14T05:42:00.642Z,1.07
2023-03-14T05:45:03.225Z,1.30
2023-03-14T05:48:07.658Z,0.87
2023-03-14T05:51:10.215Z,0.80
2023-03-14T05:54:12.810Z,1.33
2023-03-14T05:57:15.751Z,0.90
2023-03-14T06:00:19.344Z,0.95
2023-03-14T06:03:23.324Z,0.90
2023-03-14T06:06:26.062Z,0.60
2023-03-14T06:09:28.706Z,0.50
2023-03-14T06:12:31.298Z,1.53
2023-03-14T06:15:34.652Z,1.10
2023-03-14T06:18:38.504Z,0.77
2023-03-14T06:21:40.982Z,0.50
2023-03-14T06:24:43.468Z,1.00
2023-03-14T06:27:45.967Z,0.70
2023-03-14T06:30:48.538Z,0.70
2023-03-14T06:33:52.451Z,0.50
2023-03-14T06:36:54.977Z,0.93
2023-03-14T06:39:57.836Z,0.70
2023-03-14T06:43:00.538Z,0.68
2023-03-14T06:46:03.263Z,0.70
2023-03-14T06:49:07.090Z,0.83
2023-03-14T06:52:09.624Z,0.60
2023-03-14T06:55:12.235Z,0.40
2023-03-14T06:58:14.779Z,0.80
2023-03-14T07:01:24.430Z,0.67
2023-03-14T07:04:28.379Z,0.67
2023-03-14T07:07:31.040Z,0.50
2023-03-14T07:10:33.569Z,0.50
2023-03-14T07:13:36.230Z,1.43
2023-03-14T07:16:38.767Z,0.97
2023-03-14T07:19:42.629Z,0.40
2023-03-14T07:22:45.233Z,0.37
2023-03-14T07:25:47.724Z,0.30
2023-03-14T07:28:50.227Z,0.40
2023-03-14T07:31:52.839Z,0.40
2023-03-14T07:34:57.216Z,0.40
2023-03-14T07:37:59.772Z,0.40
2023-03-14T07:41:02.805Z,0.50
2023-03-14T07:44:05.320Z,0.47
2023-03-14T07:47:07.846Z,0.20
2023-03-14T07:50:12.548Z,0.40
2023-03-14T07:53:15.141Z,0.37
2023-03-14T07:56:17.625Z,0.60
2023-03-14T07:59:20.329Z,0.60
2023-03-14T08:02:24.896Z,0.50
2023-03-14T08:05:28.936Z,0.30
2023-03-14T08:08:31.453Z,0.37
2023-03-14T08:11:33.963Z,0.40
2023-03-14T08:14:36.505Z,0.90
2023-03-14T08:17:39.070Z,0.40
2023-03-14T08:20:42.897Z,0.47
2023-03-14T08:23:45.355Z,0.30
2023-03-14T08:26:47.993Z,0.30
2023-03-14T08:29:50.548Z,0.50
2023-03-14T08:32:53.406Z,0.43
2023-03-14T08:35:58.298Z,0.40
2023-03-14T08:39:00.941Z,0.20
2023-03-14T08:42:03.492Z,0.40
2023-03-14T08:45:08.500Z,0.20
2023-03-14T08:48:10.991Z,0.40
2023-03-14T08:51:16.013Z,0.40
2023-03-14T08:54:19.686Z,0.30
2023-03-14T08:57:22.851Z,0.10
2023-03-14T09:00:25.481Z,0.20
2023-03-14T09:03:29.382Z,0.20
2023-03-14T09:06:33.303Z,0.30
2023-03-14T09:09:35.810Z,0.20
2023-03-14T09:12:38.388Z,0.20
2023-03-14T09:15:43.227Z,0.20
2023-03-14T09:18:45.967Z,0.50
2023-03-14T09:21:49.907Z,0.30
2023-03-14T09:24:52.338Z,0.50
2023-03-14T09:27:54.858Z,0.20
2023-03-14T09:30:57.347Z,0.63
2023-03-14T09:33:59.839Z,0.40
2023-03-14T09:37:03.794Z,0.20
2023-03-14T09:40:11.979Z,0.63
2023-03-14T09:43:16.700Z,0.50
2023-03-14T09:46:19.997Z,0.30
2023-03-14T09:49:25.421Z,0.20
2023-03-14T09:52:33.266Z,0.50
2023-03-14T09:55:36.893Z,0.50
2023-03-14T09:58:40.368Z,0.40
2023-03-14T10:01:42.903Z,0.38
2023-03-14T10:04:47.007Z,0.20
2023-03-14T10:07:50.948Z,0.20
2023-03-14T10:10:54.120Z,0.30
2023-03-14T10:14:08.300Z,0.20
2023-03-14T10:17:12.343Z,0.20
2023-03-14T10:20:33.249Z,0.30
2023-03-14T10:23:37.804Z,0.10
2023-03-14T10:26:40.407Z,0.20
2023-03-14T10:29:58.415Z,0.27
2023-03-14T10:33:10.307Z,0.10
2023-03-14T10:36:21.893Z,0.13
2023-03-14T10:39:29.995Z,0.20
2023-03-14T10:42:34.948Z,0.20
2023-03-14T10:45:39.334Z,0.40
2023-03-14T10:48:43.025Z,0.20
2023-03-14T10:51:45.549Z,0.30
2023-03-14T10:54:57.096Z,0.20
2023-03-14T10:57:59.997Z,0.20
2023-03-14T11:01:11.471Z,0.10
2023-03-14T11:04:26.420Z,0.20
2023-03-14T11:07:31.492Z,0.20
2023-03-14T11:10:38.504Z,0.20
2023-03-14T11:13:46.113Z,0.37
2023-03-14T11:16:55.372Z,0.30
2023-03-14T11:20:10.872Z,0.30
2023-03-14T11:23:15.963Z,0.30
2023-03-14T11:26:31.396Z,0.20
2023-03-14T11:29:41.144Z,0.20
2023-03-14T11:32:46.474Z,0.20
2023-03-14T11:35:52.502Z,0.30
2023-03-14T11:38:58.704Z,0.60
2023-03-14T11:42:04.653Z,0.20
2023-03-14T11:45:17.092Z,0.20
2023-03-14T11:48:27.220Z,0.30
2023-03-14T11:51:31.788Z,0.20
2023-03-14T11:54:38.714Z,0.40
2023-03-14T11:57:43.021Z,0.30
2023-03-14T12:00:46.966Z,0.43
2023-03-14T12:03:57.181Z,0.60
2023-03-14T12:07:04.052Z,0.27
2023-03-14T12:10:07.235Z,0.30
2023-03-14T12:13:11.696Z,0.43
2023-03-14T12:16:28.824Z,0.20
2023-03-14T12:19:34.477Z,0.47
2023-03-14T12:22:37.951Z,0.60
2023-03-14T12:25:40.624Z,0.20
2023-03-14T12:28:47.179Z,0.40
2023-03-14T12:31:50.641Z,0.30
2023-03-14T12:34:53.660Z,0.20
2023-03-14T12:37:57.158Z,0.22
2023-03-14T12:41:05.477Z,0.28
2023-03-14T12:44:47.720Z,0.20
2023-03-14T12:48:11.616Z,0.30
2023-03-14T12:51:15.518Z,0.20
2023-03-14T12:54:27.603Z,0.40
2023-03-14T12:57:30.587Z,0.30
2023-03-14T13:00:36.329Z,0.20
2023-03-14T13:03:41.869Z,0.50
2023-03-14T13:06:51.994Z,0.30
2023-03-14T13:09:56.809Z,0.30
2023-03-14T13:13:04.501Z,0.50
2023-03-14T13:16:14.802Z,0.50
2023-03-14T13:19:20.830Z,0.40
2023-03-14T13:22:26.864Z,0.40
2023-03-14T13:25:32.218Z,0.43
2023-03-14T13:28:36.853Z,1.43
2023-03-14T13:31:45.699Z,0.43
2023-03-14T13:34:49.578Z,0.40
2023-03-14T13:38:10.471Z,0.60
2023-03-14T13:41:14.922Z,0.50
2023-03-14T13:44:20.384Z,0.35
2023-03-14T13:47:26.477Z,0.30
2023-03-14T13:50:29.088Z,0.50
2023-03-14T13:53:31.785Z,0.50
2023-03-14T13:56:35.189Z,0.40
2023-03-14T13:59:37.793Z,0.65
2023-03-14T14:02:41.702Z,0.20
2023-03-14T14:05:46.532Z,0.67
2023-03-14T14:08:49.073Z,0.40
2023-03-14T14:12:11.470Z,0.47
2023-03-14T14:15:20.395Z,1.03
2023-03-14T14:18:27.046Z,0.60
2023-03-14T14:21:30.008Z,0.20
2023-03-14T14:24:33.924Z,0.87
2023-03-14T14:27:40.132Z,0.40
2023-03-14T14:30:42.922Z,0.50
2023-03-14T14:33:48.236Z,0.68
2023-03-14T14:36:50.968Z,0.50
2023-03-14T14:39:55.196Z,0.40
2023-03-14T14:43:04.323Z,0.30
2023-03-14T14:46:08.886Z,0.40
2023-03-14T14:49:14.533Z,0.30
2023-03-14T14:52:18.476Z,0.43
2023-03-14T14:55:21.752Z,0.33
2023-03-14T14:58:27.117Z,0.20
2023-03-14T15:01:35.254Z,0.50
2023-03-14T15:04:39.156Z,0.60
2023-03-14T15:07:41.663Z,0.77
2023-03-14T15:10:44.535Z,0.70
2023-03-14T15:13:47.119Z,1.13
2023-03-14T15:16:49.708Z,0.50
2023-03-14T15:19:53.565Z,0.77
2023-03-14T15:22:56.133Z,0.57
2023-03-14T15:25:58.657Z,0.90
2023-03-14T15:29:01.208Z,0.40
2023-03-14T15:32:04.028Z,0.73
2023-03-14T15:35:08.965Z,0.55
2023-03-14T15:38:13.742Z,0.80
2023-03-14T15:41:17.470Z,0.70
2023-03-14T15:47:23.080Z,1.10
2023-03-14T15:50:27.380Z,0.57
2023-03-14T15:53:29.968Z,0.60
2023-03-14T15:56:32.583Z,0.90
2023-03-14T15:59:36.318Z,0.43
2023-03-14T16:02:42.056Z,0.32
2023-03-14T16:05:46.271Z,0.40
2023-03-14T16:08:48.945Z,0.87
2023-03-14T16:11:51.450Z,0.63
2023-03-14T16:14:53.951Z,1.00
2023-03-14T16:17:56.937Z,0.83
2023-03-14T16:21:02.337Z,0.70
2023-03-14T16:24:06.938Z,1.20
2023-03-14T16:27:09.702Z,0.50
2023-03-14T16:30:14.056Z,0.55
2023-03-14T16:33:17.042Z,0.70
2023-03-14T16:36:21.052Z,0.57
2023-03-14T16:39:23.546Z,0.83
2023-03-14T16:42:26.151Z,1.00
2023-03-14T16:45:29.881Z,0.73
2023-03-14T16:51:36.285Z,0.70
2023-03-14T16:54:39.072Z,1.23
2023-03-14T16:57:41.668Z,0.77
2023-03-14T17:00:45.875Z,0.80
2023-03-14T17:03:50.122Z,0.47
2023-03-14T17:06:54.025Z,0.70
2023-03-14T17:09:56.588Z,0.90
2023-03-14T17:12:59.167Z,0.60
2023-03-14T17:16:02.433Z,1.57
2023-03-14T17:19:05.088Z,0.80
2023-03-14T17:22:22.622Z,0.80
2023-03-14T17:25:26.773Z,0.70
2023-03-14T17:28:29.632Z,0.90
2023-03-14T17:31:32.167Z,0.80
2023-03-14T17:34:34.680Z,1.10
2023-03-14T17:37:38.546Z,1.03
2023-03-14T17:40:41.279Z,0.90
2023-03-14T17:43:43.945Z,1.00
2023-03-14T17:46:46.552Z,1.03
2023-03-14T17:49:49.142Z,1.17
2023-03-14T17:52:53.124Z,1.40
2023-03-14T17:55:55.670Z,1.20
2023-03-14T17:58:58.635Z,1.60
2023-03-14T18:02:01.447Z,0.93
2023-03-14T18:05:04.689Z,1.27
2023-03-14T18:08:10.511Z,1.35
2023-03-14T18:11:13.776Z,1.80
2023-03-14T18:14:16.664Z,1.20
2023-03-14T18:17:19.118Z,1.23
2023-03-14T18:20:21.614Z,1.10
2023-03-14T18:23:25.713Z,1.30
2023-03-14T18:26:28.309Z,1.47
2023-03-14T18:29:31.291Z,0.83
2023-03-14T18:32:33.837Z,1.73
2023-03-14T18:35:38.050Z,1.10
2023-03-14T18:38:43.271Z,1.50
2023-03-14T18:41:46.043Z,0.87
2023-03-14T18:44:48.554Z,1.00
2023-03-14T18:47:51.198Z,1.40
2023-03-14T18:50:53.932Z,0.90
2023-03-14T18:54:08.879Z,1.25
2023-03-14T18:57:12.747Z,1.00
2023-03-14T19:00:16.590Z,1.20
2023-03-14T19:06:21.524Z,0.70
2023-03-14T19:09:25.392Z,1.00
2023-03-14T19:15:30.945Z,0.87
2023-03-14T19:18:34.000Z,1.33
2023-03-14T19:21:37.341Z,0.70
2023-03-14T19:24:41.707Z,1.05
2023-03-14T19:27:44.305Z,0.90
2023-03-14T19:30:46.953Z,0.73
2023-03-14T19:33:49.693Z,0.63
2023-03-14T19:36:52.222Z,1.20
2023-03-14T19:39:56.078Z,0.77
2023-03-14T19:42:58.616Z,0.90
2023-03-14T19:46:01.700Z,0.70
2023-03-14T19:49:05.643Z,0.88
2023-03-14T19:52:09.358Z,0.97
2023-03-14T19:58:15.836Z,0.80
2023-03-14T20:01:18.471Z,0.90
2023-03-14T20:04:21.123Z,0.90
2023-03-14T20:07:23.792Z,0.60
2023-03-14T20:10:27.614Z,1.10
2023-03-14T20:13:30.284Z,1.17
2023-03-14T20:16:35.914Z,1.10
2023-03-14T20:19:38.480Z,1.53
2023-03-14T20:22:41.734Z,1.20
2023-03-14T20:25:46.878Z,1.40
2023-03-14T20:28:49.384Z,1.37
2023-03-14T20:31:51.919Z,0.97
2023-03-14T20:34:54.871Z,0.90
2023-03-14T20:37:59.109Z,1.00
2023-03-14T20:41:03.518Z,1.10
2023-03-14T20:44:08.883Z,1.30
2023-03-14T20:47:12.481Z,1.10
2023-03-14T20:50:15.017Z,1.23
2023-03-14T20:53:18.036Z,1.13
2023-03-14T20:56:22.108Z,1.52
2023-03-14T20:59:24.800Z,0.80
2023-03-14T21:02:27.320Z,1.10
2023-03-14T21:05:29.939Z,1.00
2023-03-14T21:08:32.867Z,1.10
2023-03-14T21:11:37.462Z,1.10
2023-03-14T21:14:40.173Z,1.20
2023-03-14T21:17:43.248Z,1.00
2023-03-14T21:20:45.947Z,0.80
2023-03-14T21:23:48.570Z,1.00
2023-03-14T21:26:52.497Z,1.23
2023-03-14T21:29:55.028Z,1.13
2023-03-14T21:32:58.420Z,1.10
2023-03-14T21:36:01.614Z,1.05
2023-03-14T21:39:04.305Z,1.05
2023-03-14T21:42:09.351Z,1.30
2023-03-14T21:45:13.492Z,1.00
2023-03-14T21:48:16.115Z,1.13
2023-03-14T21:51:18.732Z,1.10
2023-03-14T21:54:21.717Z,0.90
2023-03-14T21:57:29.869Z,0.88
2023-03-14T22:00:32.756Z,0.83
2023-03-14T22:03:35.801Z,1.90
2023-03-14T22:10:12.106Z,0.97
2023-03-14T22:13:16.410Z,0.80
2023-03-14T22:16:19.126Z,1.10
2023-03-14T22:19:22.078Z,0.90
2023-03-14T22:22:24.688Z,1.20
2023-03-14T22:25:27.210Z,0.70
2023-03-14T22:28:31.210Z,1.00
2023-03-14T22:34:36.376Z,0.73
2023-03-14T22:37:41.354Z,0.77
2023-03-14T22:40:44.061Z,0.90
2023-03-14T22:43:47.936Z,0.80
2023-03-14T22:49:52.806Z,1.03
2023-03-14T22:52:58.157Z,0.70
2023-03-14T22:56:01.495Z,0.90
2023-03-14T22:59:05.376Z,1.10
2023-03-14T23:02:08.200Z,1.20
2023-03-14T23:05:11.057Z,1.20
2023-03-14T23:08:13.780Z,0.97
2023-03-14T23:11:16.315Z,1.23
2023-03-14T23:14:22.978Z,1.50
2023-03-14T23:17:25.732Z,1.50
2023-03-14T23:20:29.350Z,1.40
2023-03-14T23:23:31.849Z,1.80
2023-03-14T23:26:35.735Z,1.70
2023-03-14T23:29:39.786Z,1.50
2023-03-14T23:35:45.738Z,1.50
2023-03-14T23:38:48.389Z,1.77
2023-03-14T23:41:51.116Z,1.87
2023-03-14T23:44:55.307Z,1.35
2023-03-14T23:47:58.074Z,1.17
2023-03-14T23:51:01.923Z,2.67
2023-03-14T23:57:07.747Z,2.50
